TAF KUES
AMD KUES 091009Z 0910/1006 VRB03KT P6SM BKN090 FM091200 14007KT P6SM BKN100 FM091500 14010G21KT P6SM VCSH OVC090 FM091700 15011G23KT 6SM -SN BR SCT025 OVC040 FM092000 17010G22KT P6SM OVC030 FM092200 21005KT P6SM BKN045=
METAR KUES
WC KUES
WS KUES
WV KUES